createdAt,value
2018-05-12T00:00:05.319Z,21.93
2018-05-12T00:00:17.775Z,23.15
2018-05-12T00:00:30.268Z,23.15
2018-05-12T00:00:42.787Z,23.15
2018-05-12T00:00:55.198Z,23.15
2018-05-12T00:01:07.613Z,23.15
2018-05-12T00:01:20.034Z,23.15
2018-05-12T00:01:32.447Z,23.15
2018-05-12T00:01:44.862Z,23.15
2018-05-12T00:01:57.274Z,23.15
2018-05-12T00:02:09.707Z,23.15
2018-05-12T00:02:22.126Z,23.15
2018-05-12T00:02:34.537Z,23.15
2018-05-12T00:02:46.947Z,23.15
2018-05-12T00:02:59.353Z,23.15
2018-05-12T00:03:11.773Z,23.15
2018-05-12T00:03:24.203Z,23.15
2018-05-12T00:03:36.643Z,23.15
2018-05-12T00:03:49.079Z,23.15
2018-05-12T00:04:01.500Z,23.15
2018-05-12T00:04:13.914Z,23.15
2018-05-12T00:04:26.333Z,23.15
2018-05-12T00:04:38.747Z,23.15
2018-05-12T00:04:51.174Z,23.15
2018-05-12T00:05:03.584Z,23.15
2018-05-12T00:05:15.990Z,23.15
2018-05-12T00:05:28.417Z,23.15
2018-05-12T00:05:40.833Z,23.15
2018-05-12T00:05:53.884Z,23.15
2018-05-12T00:06:06.534Z,23.15
2018-05-12T00:06:18.956Z,23.15
2018-05-12T00:06:31.357Z,23.15
2018-05-12T00:06:43.779Z,23.15
2018-05-12T00:06:56.186Z,23.15
2018-05-12T00:07:08.602Z,23.15
2018-05-12T00:07:21.006Z,23.15
2018-05-12T00:07:33.511Z,23.15
2018-05-12T00:07:45.927Z,23.15
2018-05-12T00:07:58.334Z,23.15
2018-05-12T00:08:10.755Z,23.15
2018-05-12T00:08:23.238Z,23.15
2018-05-12T00:08:35.635Z,23.15
2018-05-12T00:08:48.067Z,23.15
2018-05-12T00:09:00.487Z,23.15
2018-05-12T00:09:12.894Z,23.15
2018-05-12T00:09:25.325Z,23.15
2018-05-12T00:09:37.747Z,23.15
2018-05-12T00:09:50.163Z,23.15
2018-05-12T00:10:02.631Z,23.15
2018-05-12T00:10:15.036Z,22.97
2018-05-12T00:10:27.450Z,22.97
2018-05-12T00:10:39.954Z,22.97
2018-05-12T00:10:52.366Z,22.97
2018-05-12T00:11:04.836Z,22.97
2018-05-12T00:11:17.251Z,22.97
2018-05-12T00:11:29.658Z,22.97
2018-05-12T00:11:42.169Z,22.97
2018-05-12T00:11:54.585Z,22.97
2018-05-12T00:12:07.001Z,22.97
2018-05-12T00:12:19.415Z,22.97
2018-05-12T00:12:31.961Z,22.97
2018-05-12T00:12:44.376Z,22.97
2018-05-12T00:12:56.787Z,22.97
2018-05-12T00:13:09.216Z,22.97
2018-05-12T00:13:21.633Z,22.97
2018-05-12T00:13:34.066Z,22.97
2018-05-12T00:13:46.481Z,22.97
2018-05-12T00:13:58.882Z,22.97
2018-05-12T00:14:11.338Z,22.97
2018-05-12T00:14:23.759Z,22.97
2018-05-12T00:14:36.276Z,22.97
2018-05-12T00:14:48.695Z,22.97
2018-05-12T00:15:01.568Z,22.97
2018-05-12T00:15:14.474Z,22.97
2018-05-12T00:15:26.888Z,22.97
2018-05-12T00:15:39.413Z,22.97
2018-05-12T00:15:51.834Z,22.97
2018-05-12T00:16:04.341Z,22.97
2018-05-12T00:16:16.757Z,22.97
2018-05-12T00:16:29.155Z,22.97
2018-05-12T00:16:41.576Z,22.97
2018-05-12T00:16:54.008Z,22.97
2018-05-12T00:17:06.506Z,22.97
2018-05-12T00:17:18.912Z,22.97
2018-05-12T00:17:31.334Z,22.97
2018-05-12T00:17:43.756Z,22.97
2018-05-12T00:17:56.171Z,22.97
2018-05-12T00:18:08.588Z,22.97
2018-05-12T00:18:21.225Z,22.97
2018-05-12T00:18:33.720Z,22.97
2018-05-12T00:18:46.139Z,22.97
2018-05-12T00:18:58.562Z,22.97
2018-05-12T00:19:10.959Z,22.97
2018-05-12T00:19:23.365Z,22.97
2018-05-12T00:19:35.779Z,22.97
2018-05-12T00:19:48.279Z,22.97
2018-05-12T00:20:00.687Z,22.97
2018-05-12T00:20:13.102Z,21.94
2018-05-12T00:20:25.604Z,21.94
2018-05-12T00:20:38.285Z,21.94
2018-05-12T00:20:50.715Z,21.94
2018-05-12T00:21:03.133Z,21.94
2018-05-12T00:21:15.536Z,21.94
2018-05-12T00:21:27.934Z,21.94
2018-05-12T00:21:40.353Z,21.94
2018-05-12T00:21:52.760Z,21.94
2018-05-12T00:22:05.176Z,21.94
2018-05-12T00:22:17.583Z,21.94
2018-05-12T00:22:29.995Z,21.94
2018-05-12T00:22:42.419Z,21.94
2018-05-12T00:22:54.843Z,21.94
2018-05-12T00:23:07.359Z,21.94
2018-05-12T00:23:19.767Z,21.94
2018-05-12T00:23:32.173Z,21.94
2018-05-12T00:23:44.605Z,21.94
2018-05-12T00:23:57.018Z,21.94
2018-05-12T00:24:09.429Z,21.94
2018-05-12T00:24:21.876Z,21.94
2018-05-12T00:24:34.286Z,21.94
2018-05-12T00:24:46.913Z,21.94
2018-05-12T00:24:59.326Z,21.94
2018-05-12T00:25:11.742Z,21.94
2018-05-12T00:25:24.146Z,21.94
2018-05-12T00:25:36.552Z,21.94
2018-05-12T00:25:48.978Z,21.94
2018-05-12T00:26:01.384Z,21.94
2018-05-12T00:26:13.812Z,21.94
2018-05-12T00:26:26.220Z,21.94
2018-05-12T00:26:38.642Z,21.94
2018-05-12T00:26:51.047Z,21.94
2018-05-12T00:27:03.459Z,21.94
2018-05-12T00:27:15.873Z,21.94
2018-05-12T00:27:28.284Z,21.94
2018-05-12T00:27:40.700Z,21.94
2018-05-12T00:27:53.197Z,21.94
2018-05-12T00:28:05.614Z,21.94
2018-05-12T00:28:18.016Z,21.94
2018-05-12T00:28:30.429Z,21.94
2018-05-12T00:28:42.902Z,21.94
2018-05-12T00:28:55.393Z,21.94
2018-05-12T00:29:07.804Z,21.94
2018-05-12T00:29:20.299Z,21.94
2018-05-12T00:29:32.735Z,21.94
2018-05-12T00:29:45.237Z,21.94
2018-05-12T00:29:57.642Z,21.94
2018-05-12T00:30:10.059Z,22.56
2018-05-12T00:30:22.456Z,22.56
2018-05-12T00:30:34.871Z,22.56
2018-05-12T00:30:47.278Z,22.56
2018-05-12T00:30:59.679Z,22.56
2018-05-12T00:31:12.094Z,22.56
2018-05-12T00:31:24.501Z,22.56
2018-05-12T00:31:36.983Z,22.56
2018-05-12T00:31:49.399Z,22.56
2018-05-12T00:32:01.815Z,22.56
2018-05-12T00:32:14.246Z,22.56
2018-05-12T00:32:26.653Z,22.56
2018-05-12T00:32:39.057Z,22.56
2018-05-12T00:32:51.484Z,22.56
2018-05-12T00:33:03.902Z,22.56
2018-05-12T00:33:16.315Z,22.56
2018-05-12T00:33:28.737Z,22.56
2018-05-12T00:33:41.150Z,22.56
2018-05-12T00:33:53.628Z,22.56
2018-05-12T00:34:06.112Z,22.56
2018-05-12T00:34:18.604Z,22.56
2018-05-12T00:34:31.028Z,22.56
2018-05-12T00:34:43.591Z,22.56
2018-05-12T00:34:56.009Z,22.56
2018-05-12T00:35:08.515Z,22.56
2018-05-12T00:35:20.943Z,22.56
2018-05-12T00:35:33.350Z,22.56
2018-05-12T00:35:45.813Z,22.56
2018-05-12T00:35:58.240Z,22.56
2018-05-12T00:36:10.675Z,22.56
2018-05-12T00:36:23.095Z,22.56
2018-05-12T00:36:35.515Z,22.56
2018-05-12T00:36:47.931Z,22.56
2018-05-12T00:37:00.360Z,22.56
2018-05-12T00:37:12.787Z,22.56
2018-05-12T00:37:25.196Z,22.56
2018-05-12T00:37:37.614Z,22.56
2018-05-12T00:37:50.021Z,22.56
2018-05-12T00:38:02.431Z,22.56
2018-05-12T00:38:14.833Z,22.56
2018-05-12T00:38:27.324Z,22.56
2018-05-12T00:38:39.811Z,22.56
2018-05-12T00:38:52.227Z,22.56
2018-05-12T00:39:04.643Z,22.56
2018-05-12T00:39:17.069Z,22.56
2018-05-12T00:39:29.501Z,22.56
2018-05-12T00:39:42.038Z,22.56
2018-05-12T00:39:54.459Z,22.56
2018-05-12T00:40:06.861Z,22.56
2018-05-12T00:40:19.296Z,22.6
2018-05-12T00:40:31.802Z,22.6
2018-05-12T00:40:44.211Z,22.6
2018-05-12T00:40:56.627Z,22.6
2018-05-12T00:41:09.057Z,22.6
2018-05-12T00:41:21.460Z,22.6
2018-05-12T00:41:33.876Z,22.6
2018-05-12T00:41:46.313Z,22.6
2018-05-12T00:41:58.729Z,22.6
2018-05-12T00:42:11.169Z,22.6
2018-05-12T00:42:23.583Z,22.6
2018-05-12T00:42:35.995Z,22.6
2018-05-12T00:42:48.406Z,22.6
2018-05-12T00:43:01.653Z,22.6
2018-05-12T00:43:14.601Z,22.6
2018-05-12T00:43:27.105Z,22.6
2018-05-12T00:43:39.504Z,22.6
2018-05-12T00:43:51.930Z,22.6
2018-05-12T00:44:04.345Z,22.6
2018-05-12T00:44:16.755Z,22.6
2018-05-12T00:44:29.165Z,22.6
2018-05-12T00:44:41.647Z,22.6
2018-05-12T00:44:54.064Z,22.6
2018-05-12T00:45:06.481Z,22.6
2018-05-12T00:45:19.001Z,22.6
2018-05-12T00:45:31.438Z,22.6
2018-05-12T00:45:43.930Z,22.6
2018-05-12T00:45:56.358Z,22.6
2018-05-12T00:46:08.770Z,22.6
2018-05-12T00:46:21.186Z,22.6
2018-05-12T00:46:33.593Z,22.6
2018-05-12T00:46:46.013Z,22.6
2018-05-12T00:46:58.435Z,22.6
2018-05-12T00:47:10.848Z,22.6
2018-05-12T00:47:23.358Z,22.6
2018-05-12T00:47:35.774Z,22.6
2018-05-12T00:47:48.195Z,22.6
2018-05-12T00:48:00.607Z,22.6
2018-05-12T00:48:13.099Z,22.6
2018-05-12T00:48:25.599Z,22.6
2018-05-12T00:48:38.006Z,22.6
2018-05-12T00:48:50.786Z,22.6
2018-05-12T00:49:03.197Z,22.6
2018-05-12T00:49:15.593Z,22.6
2018-05-12T00:49:28.003Z,22.6
2018-05-12T00:49:40.423Z,22.6
2018-05-12T00:49:52.853Z,22.6
2018-05-12T00:50:05.271Z,22.6
2018-05-12T00:50:17.769Z,22.22
2018-05-12T00:50:30.180Z,22.22
2018-05-12T00:50:42.686Z,22.22
2018-05-12T00:50:55.110Z,22.22
2018-05-12T00:51:07.540Z,22.22
2018-05-12T00:51:20.046Z,22.22
2018-05-12T00:51:32.464Z,22.22
2018-05-12T00:51:44.883Z,22.22
2018-05-12T00:51:57.289Z,22.22
2018-05-12T00:52:09.715Z,22.22
2018-05-12T00:52:22.120Z,22.22
2018-05-12T00:52:34.532Z,22.22
2018-05-12T00:52:46.942Z,22.22
2018-05-12T00:52:59.356Z,22.22
2018-05-12T00:53:11.771Z,22.22
2018-05-12T00:53:24.308Z,22.22
2018-05-12T00:53:36.717Z,22.22
2018-05-12T00:53:49.161Z,22.22
2018-05-12T00:54:01.578Z,22.22
2018-05-12T00:54:14.005Z,22.22
2018-05-12T00:54:26.411Z,22.22
2018-05-12T00:54:38.820Z,22.22
2018-05-12T00:54:51.229Z,22.22
2018-05-12T00:55:03.651Z,22.22
2018-05-12T00:55:16.058Z,22.22
2018-05-12T00:55:28.477Z,22.22
2018-05-12T00:55:40.882Z,22.22
2018-05-12T00:55:53.575Z,22.22
2018-05-12T00:56:05.992Z,22.22
2018-05-12T00:56:18.387Z,22.22
2018-05-12T00:56:30.879Z,22.22
2018-05-12T00:56:43.294Z,22.22
2018-05-12T00:56:55.719Z,22.22
2018-05-12T00:57:08.150Z,22.22
2018-05-12T00:57:20.559Z,22.22
2018-05-12T00:57:32.975Z,22.22
2018-05-12T00:57:45.400Z,22.22
2018-05-12T00:57:57.936Z,22.22
2018-05-12T00:58:10.381Z,22.22
2018-05-12T00:58:22.824Z,22.22
2018-05-12T00:58:35.255Z,22.22
2018-05-12T00:58:47.664Z,22.22
2018-05-12T00:59:00.081Z,22.22
2018-05-12T00:59:12.488Z,22.22
2018-05-12T00:59:24.915Z,22.22
2018-05-12T00:59:37.328Z,22.22
2018-05-12T00:59:49.742Z,22.22
2018-05-12T01:00:02.161Z,22.22
2018-05-12T01:00:14.594Z,22.95
2018-05-12T01:00:27.050Z,22.95
2018-05-12T01:00:39.490Z,22.95
2018-05-12T01:00:51.931Z,22.95
2018-05-12T01:01:04.402Z,22.95
2018-05-12T01:01:16.889Z,22.95
2018-05-12T01:01:29.300Z,22.95
2018-05-12T01:01:41.707Z,22.95
2018-05-12T01:01:54.127Z,22.95
2018-05-12T01:02:06.596Z,22.95
2018-05-12T01:02:19.017Z,22.95
2018-05-12T01:02:31.431Z,22.95
2018-05-12T01:02:43.845Z,22.95
2018-05-12T01:02:56.266Z,22.95
2018-05-12T01:03:08.684Z,22.95
2018-05-12T01:03:21.131Z,22.95
2018-05-12T01:03:33.817Z,22.95
2018-05-12T01:03:46.281Z,22.95
2018-05-12T01:03:58.789Z,22.95
2018-05-12T01:04:11.232Z,22.95
2018-05-12T01:04:23.648Z,22.95
2018-05-12T01:04:36.093Z,22.95
2018-05-12T01:04:48.526Z,22.95
2018-05-12T01:05:00.926Z,22.95
2018-05-12T01:05:13.361Z,22.95
2018-05-12T01:05:25.771Z,22.95
2018-05-12T01:05:38.175Z,22.95
2018-05-12T01:05:50.598Z,22.95
2018-05-12T01:06:03.114Z,22.95
2018-05-12T01:06:15.555Z,22.95
2018-05-12T01:06:27.954Z,22.95
2018-05-12T01:06:40.371Z,22.95
2018-05-12T01:06:52.795Z,22.95
2018-05-12T01:07:05.228Z,22.95
2018-05-12T01:07:17.648Z,22.95
2018-05-12T01:07:30.093Z,22.95
2018-05-12T01:07:42.505Z,22.95
2018-05-12T01:07:54.921Z,22.95
2018-05-12T01:08:07.343Z,22.95
2018-05-12T01:08:19.755Z,22.95
2018-05-12T01:08:32.181Z,22.95
2018-05-12T01:08:44.578Z,22.95
2018-05-12T01:08:56.973Z,22.95
2018-05-12T01:09:09.392Z,22.95
2018-05-12T01:09:21.806Z,22.95
2018-05-12T01:09:34.267Z,22.95
2018-05-12T01:09:46.673Z,22.95
2018-05-12T01:09:59.076Z,22.95
2018-05-12T01:10:11.501Z,23.37
2018-05-12T01:10:23.918Z,23.37
2018-05-12T01:10:36.333Z,23.37
2018-05-12T01:10:48.842Z,23.37
2018-05-12T01:11:01.260Z,23.37
2018-05-12T01:11:13.682Z,23.37
2018-05-12T01:11:26.105Z,23.37
2018-05-12T01:11:38.577Z,23.37
2018-05-12T01:11:51.007Z,23.37
2018-05-12T01:12:03.442Z,23.37
2018-05-12T01:12:15.859Z,23.37
2018-05-12T01:12:28.274Z,23.37
2018-05-12T01:12:40.673Z,23.37
2018-05-12T01:12:53.096Z,23.37
2018-05-12T01:13:05.598Z,23.37
2018-05-12T01:13:18.009Z,23.37
2018-05-12T01:13:30.506Z,23.37
2018-05-12T01:13:44.146Z,23.37
2018-05-12T01:13:56.561Z,23.37
2018-05-12T01:14:09.071Z,23.37
2018-05-12T01:14:21.506Z,23.37
2018-05-12T01:14:33.907Z,23.37
2018-05-12T01:14:46.339Z,23.37
2018-05-12T01:14:58.754Z,23.37
2018-05-12T01:15:11.169Z,23.37
2018-05-12T01:15:23.592Z,23.37
2018-05-12T01:15:36.335Z,23.37
2018-05-12T01:15:48.750Z,23.37
2018-05-12T01:16:01.150Z,23.37
2018-05-12T01:16:13.558Z,23.37
2018-05-12T01:16:25.983Z,23.37
2018-05-12T01:16:38.402Z,23.37
2018-05-12T01:16:50.816Z,23.37
2018-05-12T01:17:03.244Z,23.37
2018-05-12T01:17:15.661Z,23.37
2018-05-12T01:17:28.228Z,23.37
2018-05-12T01:17:40.640Z,23.37
2018-05-12T01:17:53.062Z,23.37
2018-05-12T01:18:05.535Z,23.37
2018-05-12T01:18:18.083Z,23.37
2018-05-12T01:18:30.503Z,23.37
2018-05-12T01:18:42.918Z,23.37
2018-05-12T01:18:55.336Z,23.37
2018-05-12T01:19:07.761Z,23.37
2018-05-12T01:19:20.181Z,23.37
2018-05-12T01:19:32.693Z,23.37
2018-05-12T01:19:45.104Z,23.37
2018-05-12T01:19:57.519Z,23.37
2018-05-12T01:20:09.937Z,23.37
2018-05-12T01:20:22.396Z,23.35
2018-05-12T01:20:34.986Z,23.35
2018-05-12T01:20:47.392Z,23.35
2018-05-12T01:20:59.816Z,23.35
2018-05-12T01:21:12.247Z,23.35
2018-05-12T01:21:24.657Z,23.35
2018-05-12T01:21:37.065Z,23.35
2018-05-12T01:21:49.462Z,23.35
2018-05-12T01:22:01.877Z,23.35
2018-05-12T01:22:14.297Z,23.35
2018-05-12T01:22:26.713Z,23.35
2018-05-12T01:22:39.126Z,23.35
2018-05-12T01:22:51.536Z,23.35
2018-05-12T01:23:03.956Z,23.35
2018-05-12T01:23:16.371Z,23.35
2018-05-12T01:23:28.855Z,23.35
2018-05-12T01:23:41.282Z,23.35
2018-05-12T01:23:53.794Z,23.35
2018-05-12T01:24:06.210Z,23.35
2018-05-12T01:24:18.639Z,23.35
2018-05-12T01:24:31.059Z,23.35
2018-05-12T01:24:43.499Z,23.35
2018-05-12T01:24:56.108Z,23.35
2018-05-12T01:25:08.599Z,23.35
2018-05-12T01:25:21.022Z,23.35
2018-05-12T01:25:33.449Z,23.35
2018-05-12T01:25:45.859Z,23.35
2018-05-12T01:25:58.270Z,23.35
2018-05-12T01:26:10.695Z,23.35
2018-05-12T01:26:23.197Z,23.35
2018-05-12T01:26:35.601Z,23.35
2018-05-12T01:26:48.012Z,23.35
2018-05-12T01:27:00.418Z,23.35
2018-05-12T01:27:12.827Z,23.35
2018-05-12T01:27:25.228Z,23.35
2018-05-12T01:27:37.643Z,23.35
2018-05-12T01:27:50.132Z,23.35
2018-05-12T01:28:02.559Z,23.35
2018-05-12T01:28:14.968Z,23.35
2018-05-12T01:28:27.406Z,23.35
2018-05-12T01:28:39.821Z,23.35
2018-05-12T01:28:52.331Z,23.35
2018-05-12T01:29:04.752Z,23.35
2018-05-12T01:29:17.159Z,23.35
2018-05-12T01:29:29.563Z,23.35
2018-05-12T01:29:41.980Z,23.35
2018-05-12T01:29:54.417Z,23.35
2018-05-12T01:30:06.840Z,23.35
2018-05-12T01:30:19.263Z,23.15
2018-05-12T01:30:31.679Z,23.15
2018-05-12T01:30:44.112Z,23.15
2018-05-12T01:30:56.594Z,23.15
2018-05-12T01:31:09.062Z,23.15
2018-05-12T01:31:21.577Z,23.15
2018-05-12T01:31:33.992Z,23.15
2018-05-12T01:31:46.496Z,23.15
2018-05-12T01:31:58.914Z,23.15
2018-05-12T01:32:11.329Z,23.15
2018-05-12T01:32:23.754Z,23.15
2018-05-12T01:32:36.165Z,23.15
2018-05-12T01:32:48.581Z,23.15
2018-05-12T01:33:01.034Z,23.15
2018-05-12T01:33:13.473Z,23.15
2018-05-12T01:33:25.875Z,23.15
2018-05-12T01:33:38.303Z,23.15
2018-05-12T01:33:50.796Z,23.15
2018-05-12T01:34:03.209Z,23.15
2018-05-12T01:34:15.628Z,23.15
2018-05-12T01:34:28.065Z,23.15
2018-05-12T01:34:40.477Z,23.15
2018-05-12T01:34:53.011Z,23.15
2018-05-12T01:35:05.420Z,23.15
2018-05-12T01:35:17.930Z,23.15
2018-05-12T01:35:30.359Z,23.15
2018-05-12T01:35:42.771Z,23.15
2018-05-12T01:35:55.196Z,23.15
2018-05-12T01:36:07.611Z,23.15
2018-05-12T01:36:20.005Z,23.15
2018-05-12T01:36:32.420Z,23.15
2018-05-12T01:36:44.835Z,23.15
2018-05-12T01:36:57.234Z,23.15
2018-05-12T01:37:09.654Z,23.15
2018-05-12T01:37:22.085Z,23.15
2018-05-12T01:37:34.504Z,23.15
2018-05-12T01:37:46.910Z,23.15
2018-05-12T01:37:59.347Z,23.15
2018-05-12T01:38:11.758Z,23.15
2018-05-12T01:38:24.291Z,23.15
2018-05-12T01:38:36.738Z,23.15
2018-05-12T01:38:49.160Z,23.15
2018-05-12T01:39:01.574Z,23.15
2018-05-12T01:39:14.006Z,23.15
2018-05-12T01:39:26.454Z,23.15
2018-05-12T01:39:38.905Z,23.15
2018-05-12T01:39:51.575Z,23.15
2018-05-12T01:40:03.986Z,23.15
2018-05-12T01:40:16.394Z,22.1
2018-05-12T01:40:28.827Z,22.1
2018-05-12T01:40:41.238Z,22.1
2018-05-12T01:40:53.682Z,22.1
2018-05-12T01:41:06.090Z,22.1
2018-05-12T01:41:18.509Z,22.1
2018-05-12T01:41:30.914Z,22.1
2018-05-12T01:41:43.435Z,22.1
2018-05-12T01:41:55.850Z,22.1
2018-05-12T01:42:08.267Z,22.1
2018-05-12T01:42:20.685Z,22.1
2018-05-12T01:42:33.094Z,22.1
2018-05-12T01:42:45.503Z,22.1
2018-05-12T01:42:57.926Z,22.1
2018-05-12T01:43:10.354Z,22.1
2018-05-12T01:43:22.790Z,22.1
2018-05-12T01:43:35.206Z,22.1
2018-05-12T01:43:47.620Z,22.1
2018-05-12T01:44:00.036Z,22.1
2018-05-12T01:44:12.471Z,22.1
2018-05-12T01:44:24.885Z,22.1
2018-05-12T01:44:37.300Z,22.1
2018-05-12T01:44:49.736Z,22.1
2018-05-12T01:45:02.155Z,22.1
2018-05-12T01:45:14.562Z,22.1
2018-05-12T01:45:26.981Z,22.1
2018-05-12T01:45:39.400Z,22.1
2018-05-12T01:45:51.816Z,22.1
2018-05-12T01:46:04.230Z,22.1
2018-05-12T01:46:16.669Z,22.1
2018-05-12T01:46:29.156Z,22.1
2018-05-12T01:46:41.576Z,22.1
2018-05-12T01:46:53.992Z,22.1
2018-05-12T01:47:06.425Z,22.1
2018-05-12T01:47:18.836Z,22.1
2018-05-12T01:47:31.257Z,22.1
2018-05-12T01:47:43.672Z,22.1
2018-05-12T01:47:56.081Z,22.1
2018-05-12T01:48:08.496Z,22.1
2018-05-12T01:48:21.053Z,22.1
2018-05-12T01:48:33.473Z,22.1
2018-05-12T01:48:45.874Z,22.1
2018-05-12T01:48:58.830Z,22.1
2018-05-12T01:49:11.256Z,22.1
2018-05-12T01:49:23.672Z,22.1
2018-05-12T01:49:36.152Z,22.1
2018-05-12T01:49:48.566Z,22.1
2018-05-12T01:50:00.983Z,22.1
2018-05-12T01:50:13.418Z,22.34
2018-05-12T01:50:25.835Z,22.34
2018-05-12T01:50:38.265Z,22.34
2018-05-12T01:50:50.673Z,22.34
2018-05-12T01:51:03.076Z,22.34
2018-05-12T01:51:15.501Z,22.34
2018-05-12T01:51:27.897Z,22.34
2018-05-12T01:51:40.320Z,22.34
2018-05-12T01:51:52.733Z,22.34
2018-05-12T01:52:05.172Z,22.34
2018-05-12T01:52:17.581Z,22.34
2018-05-12T01:52:30.139Z,22.34
2018-05-12T01:52:42.547Z,22.34
2018-05-12T01:52:54.956Z,22.34
2018-05-12T01:53:07.460Z,22.34
2018-05-12T01:53:20.049Z,22.34
2018-05-12T01:53:32.484Z,22.34
2018-05-12T01:53:44.883Z,22.34
2018-05-12T01:53:57.291Z,22.34
2018-05-12T01:54:09.692Z,22.34
2018-05-12T01:54:22.114Z,22.34
2018-05-12T01:54:34.522Z,22.34
2018-05-12T01:54:46.926Z,22.34
2018-05-12T01:54:59.335Z,22.34
2018-05-12T01:55:11.760Z,22.34
2018-05-12T01:55:24.179Z,22.34
2018-05-12T01:55:36.598Z,22.34
2018-05-12T01:55:49.029Z,22.34
2018-05-12T01:56:01.450Z,22.34
2018-05-12T01:56:13.870Z,22.34
2018-05-12T01:56:26.370Z,22.34
2018-05-12T01:56:38.783Z,22.34
2018-05-12T01:56:51.233Z,22.34
2018-05-12T01:57:03.655Z,22.34
2018-05-12T01:57:16.210Z,22.34
2018-05-12T01:57:28.624Z,22.34
2018-05-12T01:57:41.027Z,22.34
2018-05-12T01:57:53.449Z,22.34
2018-05-12T01:58:05.897Z,22.34
2018-05-12T01:58:18.310Z,22.34
2018-05-12T01:58:30.714Z,22.34
2018-05-12T01:58:43.129Z,22.34
2018-05-12T01:58:55.542Z,22.34
2018-05-12T01:59:07.947Z,22.34
2018-05-12T01:59:20.351Z,22.34
2018-05-12T01:59:32.782Z,22.34
2018-05-12T01:59:45.187Z,22.34
2018-05-12T01:59:57.599Z,22.34
2018-05-12T02:00:10.014Z,22.34
2018-05-12T02:00:22.471Z,21.97
2018-05-12T02:00:34.905Z,21.97
2018-05-12T02:00:47.348Z,21.97
2018-05-12T02:00:59.782Z,21.97
2018-05-12T02:01:12.205Z,21.97
2018-05-12T02:01:24.624Z,21.97
2018-05-12T02:01:37.032Z,21.97
2018-05-12T02:01:49.435Z,21.97
2018-05-12T02:02:01.859Z,21.97
2018-05-12T02:02:14.403Z,21.97
2018-05-12T02:02:26.820Z,21.97
2018-05-12T02:02:39.230Z,21.97
2018-05-12T02:02:51.645Z,21.97
2018-05-12T02:03:04.087Z,21.97
2018-05-12T02:03:16.501Z,21.97
2018-05-12T02:03:28.911Z,21.97
2018-05-12T02:03:41.335Z,21.97
2018-05-12T02:03:53.761Z,21.97
2018-05-12T02:04:06.186Z,21.97
2018-05-12T02:04:18.615Z,21.97
2018-05-12T02:04:31.044Z,21.97
2018-05-12T02:04:43.458Z,21.97
2018-05-12T02:04:55.873Z,21.97
2018-05-12T02:05:08.385Z,21.97
2018-05-12T02:05:20.815Z,21.97
2018-05-12T02:05:33.225Z,21.97
2018-05-12T02:05:45.646Z,21.97
2018-05-12T02:05:58.046Z,21.97
2018-05-12T02:06:10.454Z,21.97
2018-05-12T02:06:22.870Z,21.97
2018-05-12T02:06:35.267Z,21.97
2018-05-12T02:06:47.684Z,21.97
2018-05-12T02:07:00.090Z,21.97
2018-05-12T02:07:12.552Z,21.97
2018-05-12T02:07:24.956Z,21.97
2018-05-12T02:07:37.406Z,21.97
2018-05-12T02:07:49.826Z,21.97
2018-05-12T02:08:02.237Z,21.97
2018-05-12T02:08:14.733Z,21.97
2018-05-12T02:08:27.153Z,21.97
2018-05-12T02:08:39.562Z,21.97
2018-05-12T02:08:51.983Z,21.97
2018-05-12T02:09:04.377Z,21.97
2018-05-12T02:09:16.806Z,21.97
2018-05-12T02:09:29.263Z,21.97
2018-05-12T02:09:41.679Z,21.97
2018-05-12T02:09:54.093Z,21.97
2018-05-12T02:10:06.509Z,21.97
2018-05-12T02:10:18.927Z,21.42
2018-05-12T02:10:31.427Z,21.42
2018-05-12T02:10:43.852Z,21.42
2018-05-12T02:10:56.249Z,21.42
2018-05-12T02:11:08.656Z,21.42
2018-05-12T02:11:21.074Z,21.42
2018-05-12T02:11:33.502Z,21.42
2018-05-12T02:11:46.099Z,21.42
2018-05-12T02:11:58.499Z,21.42
2018-05-12T02:12:11.007Z,21.42
2018-05-12T02:12:23.417Z,21.42
2018-05-12T02:12:35.839Z,21.42
2018-05-12T02:12:48.245Z,21.42
2018-05-12T02:13:00.741Z,21.42
2018-05-12T02:13:13.156Z,21.42
2018-05-12T02:13:25.574Z,21.42
2018-05-12T02:13:37.986Z,21.42
2018-05-12T02:13:50.397Z,21.42
2018-05-12T02:14:02.804Z,21.42
2018-05-12T02:14:15.232Z,21.42
2018-05-12T02:14:27.632Z,21.42
2018-05-12T02:14:40.039Z,21.42
2018-05-12T02:14:52.528Z,21.42
2018-05-12T02:15:04.938Z,21.42
2018-05-12T02:15:17.340Z,21.42
2018-05-12T02:15:30.025Z,21.42
2018-05-12T02:15:42.446Z,21.42
2018-05-12T02:15:54.950Z,21.42
2018-05-12T02:16:07.353Z,21.42
2018-05-12T02:16:19.775Z,21.42
2018-05-12T02:16:32.190Z,21.42
2018-05-12T02:16:44.611Z,21.42
2018-05-12T02:16:57.028Z,21.42
2018-05-12T02:17:09.436Z,21.42
2018-05-12T02:17:21.837Z,21.42
2018-05-12T02:17:34.324Z,21.42
2018-05-12T02:17:46.731Z,21.42
2018-05-12T02:17:59.137Z,21.42
2018-05-12T02:18:11.595Z,21.42
2018-05-12T02:18:24.167Z,21.42
2018-05-12T02:18:36.568Z,21.42
2018-05-12T02:18:48.989Z,21.42
2018-05-12T02:19:01.395Z,21.42
2018-05-12T02:19:13.880Z,21.42
2018-05-12T02:19:26.286Z,21.42
2018-05-12T02:19:38.787Z,21.42
2018-05-12T02:19:51.204Z,21.42
2018-05-12T02:20:03.639Z,21.42
2018-05-12T02:20:16.053Z,21.81
2018-05-12T02:20:28.483Z,21.81
2018-05-12T02:20:40.977Z,21.81
2018-05-12T02:20:53.474Z,21.81
2018-05-12T02:21:05.880Z,21.81
2018-05-12T02:21:18.289Z,21.81
2018-05-12T02:21:30.688Z,21.81
2018-05-12T02:21:43.111Z,21.81
2018-05-12T02:21:55.516Z,21.81
2018-05-12T02:22:07.919Z,21.81
2018-05-12T02:22:20.333Z,21.81
2018-05-12T02:22:32.819Z,21.81
2018-05-12T02:22:45.234Z,21.81
2018-05-12T02:22:57.687Z,21.81
2018-05-12T02:23:10.101Z,21.81
2018-05-12T02:23:22.603Z,21.81
2018-05-12T02:23:35.008Z,21.81
2018-05-12T02:23:47.421Z,21.81
2018-05-12T02:23:59.825Z,21.81
2018-05-12T02:24:12.244Z,21.81
2018-05-12T02:24:24.661Z,21.81
2018-05-12T02:24:37.077Z,21.81
2018-05-12T02:24:49.768Z,21.81
2018-05-12T02:25:02.173Z,21.81
2018-05-12T02:25:14.605Z,21.81
2018-05-12T02:25:27.038Z,21.81
2018-05-12T02:25:39.439Z,21.81
2018-05-12T02:25:51.847Z,21.81
2018-05-12T02:26:04.260Z,21.81
2018-05-12T02:26:16.668Z,21.81
2018-05-12T02:26:29.086Z,21.81
2018-05-12T02:26:41.506Z,21.81
2018-05-12T02:26:53.913Z,21.81
2018-05-12T02:27:06.351Z,21.81
2018-05-12T02:27:18.756Z,21.81
2018-05-12T02:27:31.166Z,21.81
2018-05-12T02:27:43.576Z,21.81
2018-05-12T02:27:55.991Z,21.81
2018-05-12T02:28:08.397Z,21.81
2018-05-12T02:28:20.832Z,21.81
2018-05-12T02:28:33.279Z,21.81
2018-05-12T02:28:45.843Z,21.81
2018-05-12T02:28:58.263Z,21.81
2018-05-12T02:29:10.682Z,21.81
2018-05-12T02:29:23.196Z,21.81
2018-05-12T02:29:35.687Z,21.81
2018-05-12T02:29:48.098Z,21.81
2018-05-12T02:30:00.514Z,21.81
2018-05-12T02:30:12.956Z,21.81
2018-05-12T02:30:26.182Z,22
2018-05-12T02:30:39.330Z,22
2018-05-12T02:30:51.762Z,22
2018-05-12T02:31:04.272Z,22
2018-05-12T02:31:16.701Z,22
2018-05-12T02:31:29.143Z,22
2018-05-12T02:31:41.564Z,22
2018-05-12T02:31:53.985Z,22
2018-05-12T02:32:06.492Z,22
2018-05-12T02:32:18.929Z,22
2018-05-12T02:32:31.452Z,22
2018-05-12T02:32:43.910Z,22
2018-05-12T02:32:56.369Z,22
2018-05-12T02:33:08.813Z,22
2018-05-12T02:33:21.263Z,22
2018-05-12T02:33:33.705Z,22
2018-05-12T02:33:46.232Z,22
2018-05-12T02:34:00.962Z,22
2018-05-12T02:34:13.639Z,22
2018-05-12T02:34:26.312Z,22
2018-05-12T02:34:39.021Z,22
2018-05-12T02:34:51.709Z,22
2018-05-12T02:35:04.385Z,22
2018-05-12T02:35:17.070Z,22
2018-05-12T02:35:29.758Z,22
2018-05-12T02:35:42.442Z,22
2018-05-12T02:35:55.136Z,22
2018-05-12T02:36:07.871Z,22
2018-05-12T02:36:20.594Z,22
2018-05-12T02:36:33.096Z,22
2018-05-12T02:36:45.542Z,22
2018-05-12T02:36:57.946Z,22
2018-05-12T02:37:10.355Z,22
2018-05-12T02:37:22.758Z,22
2018-05-12T02:37:35.206Z,22
2018-05-12T02:37:47.594Z,22
2018-05-12T02:37:59.993Z,22
2018-05-12T02:38:12.416Z,22
2018-05-12T02:38:24.847Z,22
2018-05-12T02:38:37.371Z,22
2018-05-12T02:38:49.846Z,22
2018-05-12T02:39:02.274Z,22
2018-05-12T02:39:14.711Z,22
2018-05-12T02:39:27.156Z,22
2018-05-12T02:39:39.559Z,22
2018-05-12T02:39:51.962Z,22
2018-05-12T02:40:04.430Z,22
2018-05-12T02:40:16.844Z,23.75
2018-05-12T02:40:29.300Z,23.75
2018-05-12T02:40:41.710Z,23.75
2018-05-12T02:40:54.158Z,23.75
2018-05-12T02:41:06.631Z,23.75
2018-05-12T02:41:19.064Z,23.75
2018-05-12T02:41:31.525Z,23.75
2018-05-12T02:41:43.928Z,23.75
2018-05-12T02:41:56.373Z,23.75